createdAt,value
2018-02-12T00:00:30.327Z,62.71
2018-02-12T00:02:58.967Z,62.93
2018-02-12T00:05:27.734Z,62.62
2018-02-12T00:07:56.336Z,62.18
2018-02-12T00:10:25.408Z,62.39
2018-02-12T00:12:53.997Z,62.19
2018-02-12T00:15:22.710Z,61.96
2018-02-12T00:17:51.372Z,62.42
2018-02-12T00:20:20.034Z,62.98
2018-02-12T00:22:48.738Z,62.55
2018-02-12T00:25:18.194Z,62.24
2018-02-12T00:27:46.928Z,62.26
2018-02-12T00:30:15.647Z,61.98
2018-02-12T00:32:44.621Z,62.54
2018-02-12T00:35:13.293Z,62.45
2018-02-12T00:37:41.907Z,62.44
2018-02-12T00:40:10.988Z,62.74
2018-02-12T00:42:39.661Z,62.75
2018-02-12T00:45:08.357Z,62.62
2018-02-12T00:47:37.032Z,62.62
2018-02-12T00:50:06.493Z,62.71
2018-02-12T00:52:35.119Z,62.42
2018-02-12T00:55:03.830Z,62.44
2018-02-12T00:57:32.491Z,62.82
2018-02-12T01:00:01.181Z,62.30
2018-02-12T01:02:29.827Z,62.13
2018-02-12T01:04:58.550Z,61.86
2018-02-12T01:07:27.235Z,61.59
2018-02-12T01:09:55.845Z,61.75
2018-02-12T01:12:24.521Z,61.67
2018-02-12T01:14:53.194Z,61.46
2018-02-12T01:17:21.892Z,61.60
2018-02-12T01:19:50.461Z,61.71
2018-02-12T01:22:19.080Z,61.78
2018-02-12T01:24:48.116Z,62.60
2018-02-12T01:27:16.734Z,61.95
2018-02-12T01:29:45.381Z,61.78
2018-02-12T01:32:14.079Z,61.98
2018-02-12T01:34:42.680Z,61.82
2018-02-12T01:37:11.264Z,61.90
2018-02-12T01:39:39.958Z,63.06
2018-02-12T01:42:08.611Z,62.24
2018-02-12T01:44:37.228Z,62.09
2018-02-12T01:47:06.019Z,62.23
2018-02-12T01:49:34.805Z,61.96
2018-02-12T01:52:03.535Z,61.92
2018-02-12T01:54:32.321Z,62.01
2018-02-12T01:57:00.959Z,62.62
2018-02-12T01:59:29.557Z,63.13
2018-02-12T02:01:58.333Z,63.16
2018-02-12T02:04:27.010Z,63.21
2018-02-12T02:06:55.804Z,62.96
2018-02-12T02:09:24.502Z,62.17
2018-02-12T02:11:53.278Z,62.18
2018-02-12T02:14:21.909Z,62.00
2018-02-12T02:16:50.686Z,61.71
2018-02-12T02:19:19.356Z,61.39
2018-02-12T02:21:48.998Z,61.89
2018-02-12T02:24:17.577Z,62.29
2018-02-12T02:26:46.266Z,61.84
2018-02-12T02:29:14.940Z,61.72
2018-02-12T02:31:43.946Z,61.77
2018-02-12T02:34:12.684Z,61.12
2018-02-12T02:36:41.393Z,62.07
2018-02-12T02:39:10.051Z,62.02
2018-02-12T02:41:38.755Z,62.78
2018-02-12T02:44:07.412Z,61.87
2018-02-12T02:46:36.021Z,62.12
2018-02-12T02:49:04.693Z,61.66
2018-02-12T02:51:33.279Z,61.73
2018-02-12T02:54:01.870Z,61.62
2018-02-12T02:56:30.555Z,61.75
2018-02-12T02:58:59.236Z,61.67
2018-02-12T03:01:28.020Z,62.00
2018-02-12T03:03:56.613Z,61.71
2018-02-12T03:06:26.152Z,61.67
2018-02-12T03:08:55.309Z,61.96
2018-02-12T03:11:24.006Z,61.79
2018-02-12T03:13:52.652Z,61.85
2018-02-12T03:16:21.255Z,62.40
2018-02-12T03:18:50.160Z,62.16
2018-02-12T03:21:19.003Z,61.72
2018-02-12T03:23:47.632Z,61.71
2018-02-12T03:26:16.342Z,62.20
2018-02-12T03:28:44.881Z,62.37
2018-02-12T03:31:13.544Z,63.14
2018-02-12T03:33:42.135Z,62.71
2018-02-12T03:36:10.802Z,62.94
2018-02-12T03:38:39.460Z,63.04
2018-02-12T03:41:08.226Z,62.54
2018-02-12T03:43:36.934Z,62.38
2018-02-12T03:46:05.598Z,62.22
2018-02-12T03:48:34.313Z,62.48
2018-02-12T03:51:02.991Z,61.93
2018-02-12T03:53:31.710Z,61.95
2018-02-12T03:56:01.011Z,61.83
2018-02-12T03:58:29.693Z,61.90
2018-02-12T04:00:58.641Z,61.87
2018-02-12T04:03:27.216Z,61.57
2018-02-12T04:05:55.920Z,61.57
2018-02-12T04:08:24.494Z,61.42
2018-02-12T04:10:53.202Z,62.30
2018-02-12T04:13:22.153Z,61.99
2018-02-12T04:15:50.956Z,61.93
2018-02-12T04:18:19.536Z,61.93
2018-02-12T04:20:49.261Z,62.42
2018-02-12T04:23:17.919Z,62.37
2018-02-12T04:25:46.622Z,61.95
2018-02-12T04:28:15.308Z,61.41
2018-02-12T04:30:43.892Z,61.28
2018-02-12T04:33:12.538Z,61.53
2018-02-12T04:35:41.287Z,61.89
2018-02-12T04:38:10.052Z,62.38
2018-02-12T04:40:38.840Z,62.06
2018-02-12T04:45:42.066Z,61.95
2018-02-12T04:48:10.515Z,61.98
2018-02-12T04:50:38.943Z,61.80
2018-02-12T04:53:07.333Z,61.51
2018-02-12T04:55:35.785Z,61.81
2018-02-12T04:58:04.156Z,61.21
2018-02-12T05:00:32.532Z,60.78
2018-02-12T05:03:01.271Z,60.63
2018-02-12T05:05:30.085Z,60.95
2018-02-12T05:07:58.448Z,60.44
2018-02-12T05:10:27.788Z,59.54
2018-02-12T05:12:56.143Z,59.63
2018-02-12T05:15:24.515Z,59.74
2018-02-12T05:17:53.355Z,60.02
2018-02-12T05:20:21.756Z,59.92
2018-02-12T05:22:50.143Z,59.67
2018-02-12T05:25:18.506Z,59.63
2018-02-12T05:27:46.874Z,59.75
2018-02-12T05:30:15.253Z,59.40
2018-02-12T05:32:43.633Z,59.40
2018-02-12T05:35:12.014Z,58.93
2018-02-12T05:37:40.391Z,59.11
2018-02-12T05:40:08.771Z,58.74
2018-02-12T05:42:37.149Z,59.69
2018-02-12T05:45:05.497Z,58.88
2018-02-12T05:47:33.866Z,58.58
2018-02-12T05:50:02.239Z,58.04
2018-02-12T05:52:30.614Z,58.75
2018-02-12T05:54:58.982Z,58.79
2018-02-12T05:57:27.524Z,58.09
2018-02-12T05:59:55.914Z,59.20
2018-02-12T06:02:24.298Z,58.48
2018-02-12T06:04:52.664Z,59.03
2018-02-12T06:07:21.041Z,58.82
2018-02-12T06:09:49.419Z,58.68
2018-02-12T06:12:18.223Z,58.36
2018-02-12T06:14:46.612Z,58.70
2018-02-12T06:17:14.972Z,59.08
2018-02-12T06:19:43.335Z,58.49
2018-02-12T06:22:11.704Z,58.48
2018-02-12T06:24:40.065Z,59.07
2018-02-12T06:27:08.519Z,58.79
2018-02-12T06:29:37.374Z,58.58
2018-02-12T06:32:05.754Z,58.60
2018-02-12T06:34:34.120Z,58.26
2018-02-12T06:37:02.484Z,58.16
2018-02-12T06:39:30.836Z,58.07
2018-02-12T06:41:59.203Z,58.42
2018-02-12T06:44:27.974Z,58.88
2018-02-12T06:46:56.349Z,59.14
2018-02-12T06:49:24.783Z,59.31
2018-02-12T06:51:53.147Z,59.08
2018-02-12T06:54:21.503Z,58.80
2018-02-12T06:56:50.275Z,58.18
2018-02-12T06:59:18.656Z,58.58
2018-02-12T07:01:47.040Z,58.57
2018-02-12T07:04:15.405Z,59.14
2018-02-12T07:06:43.780Z,58.45
2018-02-12T07:09:12.159Z,57.93
2018-02-12T07:11:40.529Z,57.40
2018-02-12T07:14:08.896Z,57.46
2018-02-12T07:16:37.272Z,57.88
2018-02-12T07:19:05.636Z,57.19
2018-02-12T07:21:33.999Z,57.77
2018-02-12T07:24:02.409Z,57.10
2018-02-12T07:26:30.788Z,56.57
2018-02-12T07:28:59.164Z,57.27
2018-02-12T07:31:27.533Z,56.11
2018-02-12T07:33:55.904Z,56.01
2018-02-12T07:36:24.323Z,56.04
2018-02-12T07:38:52.698Z,56.08
2018-02-12T07:41:21.063Z,55.76
2018-02-12T07:43:49.418Z,55.65
2018-02-12T07:46:17.805Z,55.66
2018-02-12T07:48:46.163Z,55.16
2018-02-12T07:51:14.570Z,54.47
2018-02-12T07:53:42.960Z,55.44
2018-02-12T07:56:11.333Z,53.77
2018-02-12T07:58:39.685Z,52.66
2018-02-12T08:01:08.060Z,50.09
2018-02-12T08:03:36.420Z,48.92
2018-02-12T08:06:05.179Z,49.21
2018-02-12T08:08:33.539Z,49.22
2018-02-12T08:11:01.929Z,49.72
2018-02-12T08:13:30.299Z,50.11
2018-02-12T08:15:58.686Z,50.35
2018-02-12T08:18:27.062Z,49.70
2018-02-12T08:20:55.435Z,50.09
2018-02-12T08:23:23.789Z,50.70
2018-02-12T08:25:52.200Z,50.52
2018-02-12T08:28:20.584Z,49.89
2018-02-12T08:30:48.972Z,47.79
2018-02-12T08:33:17.337Z,47.91
2018-02-12T08:35:45.708Z,47.62
2018-02-12T08:38:14.126Z,47.99
2018-02-12T08:40:42.495Z,49.22
2018-02-12T08:43:10.866Z,49.47
2018-02-12T08:45:39.262Z,49.87
2018-02-12T08:48:07.644Z,50.40
2018-02-12T08:50:36.404Z,49.93
2018-02-12T08:53:05.631Z,50.62
2018-02-12T08:55:34.490Z,50.83
2018-02-12T08:58:02.967Z,51.16
2018-02-12T09:00:31.436Z,51.21
2018-02-12T09:02:59.897Z,51.62
2018-02-12T09:05:28.356Z,51.48
2018-02-12T09:07:56.909Z,51.29
2018-02-12T09:10:25.389Z,50.86
2018-02-12T09:12:53.827Z,50.65
2018-02-12T09:15:22.277Z,50.65
2018-02-12T09:17:50.743Z,49.81
2018-02-12T09:20:19.595Z,49.46
2018-02-12T09:22:48.057Z,50.81
2018-02-12T09:25:16.515Z,50.53
2018-02-12T09:27:44.987Z,49.74
2018-02-12T09:30:13.839Z,49.50
2018-02-12T09:32:42.295Z,50.14
2018-02-12T09:35:10.947Z,49.33
2018-02-12T09:37:39.401Z,49.49
2018-02-12T09:40:07.906Z,48.97
2018-02-12T09:42:36.763Z,47.98
2018-02-12T09:45:05.535Z,47.73
2018-02-12T09:47:34.055Z,48.32
2018-02-12T09:50:02.507Z,47.91
2018-02-12T09:52:30.992Z,48.23
2018-02-12T09:54:59.456Z,48.54
2018-02-12T09:57:27.907Z,48.19
2018-02-12T09:59:56.384Z,48.32
2018-02-12T10:02:24.853Z,47.23
2018-02-12T10:04:53.338Z,46.75
2018-02-12T10:07:21.780Z,46.56
2018-02-12T10:09:50.275Z,45.17
2018-02-12T10:12:19.178Z,43.38
2018-02-12T10:14:47.641Z,42.86
2018-02-12T10:17:16.241Z,42.87
2018-02-12T10:19:44.708Z,42.58
2018-02-12T10:22:13.701Z,42.23
2018-02-12T10:24:42.552Z,43.50
2018-02-12T10:27:11.051Z,43.18
2018-02-12T10:29:39.504Z,43.09
2018-02-12T10:32:08.010Z,42.59
2018-02-12T10:34:37.204Z,44.84
2018-02-12T10:37:05.664Z,45.19
2018-02-12T10:39:34.950Z,45.52
2018-02-12T10:42:03.886Z,45.60
2018-02-12T10:44:32.370Z,45.40
2018-02-12T10:47:00.826Z,45.55
2018-02-12T10:49:29.286Z,46.17
2018-02-12T10:51:57.751Z,45.02
2018-02-12T10:54:26.596Z,45.27
2018-02-12T10:56:55.642Z,45.48
2018-02-12T10:59:24.139Z,44.99
2018-02-12T11:01:52.636Z,45.01
2018-02-12T11:04:21.578Z,44.73
2018-02-12T11:06:50.042Z,45.75
2018-02-12T11:09:18.491Z,44.76
2018-02-12T11:11:47.402Z,45.04
2018-02-12T11:14:15.868Z,44.34
2018-02-12T11:16:44.316Z,44.49
2018-02-12T11:19:12.764Z,44.91
2018-02-12T11:21:41.649Z,45.59
2018-02-12T11:24:10.194Z,45.25
2018-02-12T11:26:38.667Z,44.89
2018-02-12T11:29:07.146Z,45.28
2018-02-12T11:31:35.737Z,45.69
2018-02-12T11:34:04.176Z,46.51
2018-02-12T11:36:33.082Z,46.18
2018-02-12T11:39:01.511Z,45.54
2018-02-12T11:41:29.965Z,45.53
2018-02-12T11:43:58.417Z,45.07
2018-02-12T11:46:27.288Z,45.45
2018-02-12T11:48:55.748Z,44.73
2018-02-12T11:51:24.222Z,43.65
2018-02-12T11:53:52.679Z,42.71
2018-02-12T11:56:21.146Z,42.53
2018-02-12T11:58:49.691Z,42.19
2018-02-12T12:01:18.244Z,43.42
2018-02-12T12:03:46.702Z,43.28
2018-02-12T12:06:15.150Z,43.29
2018-02-12T12:08:43.999Z,43.82
2018-02-12T12:11:12.460Z,43.13
2018-02-12T12:13:40.899Z,42.94
2018-02-12T12:16:09.750Z,43.69
2018-02-12T12:18:38.203Z,42.18
2018-02-12T12:21:06.648Z,41.81
2018-02-12T12:23:35.084Z,41.84
2018-02-12T12:26:03.536Z,42.89
2018-02-12T12:28:31.992Z,43.59
2018-02-12T12:31:00.684Z,43.38
2018-02-12T12:33:29.538Z,43.95
2018-02-12T12:35:57.995Z,44.06
2018-02-12T12:38:26.463Z,43.84
2018-02-12T12:40:54.924Z,43.80
2018-02-12T12:43:23.390Z,44.01
2018-02-12T12:45:51.871Z,43.85
2018-02-12T12:48:20.723Z,44.76
2018-02-12T12:50:49.178Z,44.30
2018-02-12T12:53:17.620Z,43.21
2018-02-12T12:55:46.466Z,41.85
2018-02-12T12:58:14.916Z,40.50
2018-02-12T13:00:43.380Z,40.36
2018-02-12T13:03:12.228Z,39.66
2018-02-12T13:05:40.680Z,38.89
2018-02-12T13:08:09.131Z,38.36
2018-02-12T13:10:37.968Z,38.54
2018-02-12T13:13:06.432Z,38.35
2018-02-12T13:15:34.892Z,39.32
2018-02-12T13:18:05.036Z,40.10
2018-02-12T13:20:33.522Z,40.11
2018-02-12T13:23:01.980Z,40.49
2018-02-12T13:25:30.443Z,41.20
2018-02-12T13:27:59.284Z,40.84
2018-02-12T13:30:27.745Z,40.46
2018-02-12T13:32:56.193Z,40.01
2018-02-12T13:35:25.038Z,39.36
2018-02-12T13:37:53.483Z,38.71
2018-02-12T13:40:21.946Z,39.90
2018-02-12T13:42:50.780Z,41.70
2018-02-12T13:45:19.267Z,41.58
2018-02-12T13:47:47.736Z,40.63
2018-02-12T13:50:16.179Z,40.12
2018-02-12T13:52:45.021Z,40.21
2018-02-12T13:55:13.610Z,39.96
2018-02-12T13:57:42.067Z,40.62
2018-02-12T14:00:10.528Z,41.16
2018-02-12T14:02:38.979Z,40.90
2018-02-12T14:05:07.844Z,42.46
2018-02-12T14:07:36.392Z,41.94
2018-02-12T14:10:04.828Z,41.38
2018-02-12T14:12:33.324Z,42.25
2018-02-12T14:15:02.168Z,42.98
2018-02-12T14:17:30.635Z,43.38
2018-02-12T14:19:59.088Z,44.41
2018-02-12T14:22:27.543Z,43.72
2018-02-12T14:24:55.988Z,43.26
2018-02-12T14:27:24.439Z,44.07
2018-02-12T14:29:52.875Z,43.42
2018-02-12T14:32:21.328Z,43.95
2018-02-12T14:34:49.784Z,43.46
2018-02-12T14:37:18.245Z,43.64
2018-02-12T14:39:47.087Z,43.41
2018-02-12T14:42:15.629Z,43.33
2018-02-12T14:44:44.075Z,42.88
2018-02-12T14:47:12.630Z,43.98
2018-02-12T14:49:41.079Z,43.24
2018-02-12T14:52:09.540Z,43.47
2018-02-12T14:54:38.412Z,43.42
2018-02-12T14:57:06.957Z,43.53
2018-02-12T14:59:35.412Z,44.28
2018-02-12T15:02:03.921Z,44.12
2018-02-12T15:04:32.359Z,43.81
2018-02-12T15:07:00.836Z,43.87
2018-02-12T15:09:29.724Z,44.49
2018-02-12T15:11:58.568Z,45.56
2018-02-12T15:14:27.034Z,45.49
2018-02-12T15:16:55.536Z,45.34
2018-02-12T15:19:24.022Z,45.26
2018-02-12T15:21:52.514Z,46.02
2018-02-12T15:24:21.381Z,45.96
2018-02-12T15:26:49.836Z,45.44
2018-02-12T15:29:18.291Z,45.40
2018-02-12T15:31:46.769Z,46.04
2018-02-12T15:34:15.610Z,45.92
2018-02-12T15:36:44.069Z,46.01
2018-02-12T15:39:12.522Z,45.73
2018-02-12T15:41:41.372Z,45.83
2018-02-12T15:44:09.833Z,46.40
2018-02-12T15:46:38.302Z,46.27
2018-02-12T15:49:06.734Z,46.40
2018-02-12T15:51:35.610Z,46.15
2018-02-12T15:54:04.050Z,47.00
2018-02-12T15:56:32.578Z,47.36
2018-02-12T15:59:01.469Z,47.10
2018-02-12T16:01:29.939Z,47.67
2018-02-12T16:03:58.416Z,48.38
2018-02-12T16:06:26.936Z,52.41
2018-02-12T16:08:55.767Z,55.90
2018-02-12T16:11:24.211Z,59.59
2018-02-12T16:13:52.665Z,61.13
2018-02-12T16:16:21.115Z,60.77
2018-02-12T16:18:52.754Z,58.98
2018-02-12T16:21:21.225Z,58.29
2018-02-12T16:23:49.672Z,57.08
2018-02-12T16:26:18.126Z,56.74
2018-02-12T16:28:46.560Z,57.99
2018-02-12T16:31:15.035Z,57.38
2018-02-12T16:33:43.505Z,57.81
2018-02-12T16:36:12.585Z,58.14
2018-02-12T16:38:41.144Z,58.31
2018-02-12T16:41:09.584Z,58.72
2018-02-12T16:43:38.727Z,57.70
2018-02-12T16:46:07.205Z,58.26
2018-02-12T16:48:35.646Z,58.57
2018-02-12T16:51:04.100Z,58.36
2018-02-12T16:53:32.963Z,58.16
2018-02-12T16:56:01.523Z,57.83
2018-02-12T16:58:30.104Z,57.82
2018-02-12T17:00:58.575Z,56.96
2018-02-12T17:03:27.048Z,56.60
2018-02-12T17:05:55.503Z,56.77
2018-02-12T17:08:23.977Z,56.15
2018-02-12T17:10:53.640Z,56.25
2018-02-12T17:13:22.100Z,56.26
2018-02-12T17:15:50.552Z,55.75
2018-02-12T17:18:19.405Z,56.22
2018-02-12T17:20:47.927Z,56.45
2018-02-12T17:23:16.790Z,56.19
2018-02-12T17:25:45.350Z,55.73
2018-02-12T17:28:13.975Z,55.45
2018-02-12T17:30:43.233Z,55.64
2018-02-12T17:33:11.672Z,55.62
2018-02-12T17:35:40.515Z,55.73
2018-02-12T17:38:08.964Z,55.78
2018-02-12T17:40:37.436Z,55.62
2018-02-12T17:43:05.905Z,55.67
2018-02-12T17:45:34.773Z,55.99
2018-02-12T17:48:03.628Z,55.90
2018-02-12T17:50:32.108Z,55.94
2018-02-12T17:53:00.559Z,56.03
2018-02-12T17:55:29.020Z,55.71
2018-02-12T17:57:57.884Z,55.35
2018-02-12T18:00:26.343Z,55.39
2018-02-12T18:02:54.900Z,55.38
2018-02-12T18:05:23.395Z,55.32
2018-02-12T18:07:52.169Z,55.13
2018-02-12T18:10:20.643Z,55.77
2018-02-12T18:12:49.354Z,55.57
2018-02-12T18:15:17.751Z,56.19
2018-02-12T18:17:46.205Z,56.08
2018-02-12T18:20:14.672Z,55.54
2018-02-12T18:22:43.149Z,55.27
2018-02-12T18:25:11.620Z,55.11
2018-02-12T18:27:40.660Z,55.15
2018-02-12T18:30:09.201Z,54.51
2018-02-12T18:32:42.516Z,54.53
2018-02-12T18:35:11.252Z,54.87
2018-02-12T18:37:39.934Z,55.10
2018-02-12T18:40:08.408Z,54.62
2018-02-12T18:42:36.900Z,54.78
2018-02-12T18:45:05.371Z,55.61
2018-02-12T18:47:33.884Z,55.22
2018-02-12T18:50:02.750Z,55.50
2018-02-12T18:52:31.243Z,55.39
2018-02-12T18:55:00.090Z,55.37
2018-02-12T18:57:28.923Z,55.53
2018-02-12T18:59:57.700Z,55.14
2018-02-12T19:02:26.193Z,55.18
2018-02-12T19:04:55.089Z,55.08
2018-02-12T19:07:23.581Z,55.60
2018-02-12T19:09:52.420Z,55.60
2018-02-12T19:12:20.879Z,55.32
2018-02-12T19:14:49.476Z,55.87
2018-02-12T19:17:17.945Z,56.03
2018-02-12T19:19:46.409Z,56.13
2018-02-12T19:22:14.864Z,55.54
2018-02-12T19:24:43.348Z,55.75
2018-02-12T19:27:12.206Z,55.46
2018-02-12T19:29:40.688Z,55.66
2018-02-12T19:32:09.559Z,55.82
2018-02-12T19:34:38.030Z,55.55
2018-02-12T19:37:06.938Z,55.87
2018-02-12T19:39:36.471Z,55.77
2018-02-12T19:42:04.963Z,56.10
2018-02-12T19:44:33.418Z,56.38
2018-02-12T19:47:01.882Z,56.32
2018-02-12T19:49:30.332Z,55.87
2018-02-12T19:51:58.794Z,55.83
2018-02-12T19:54:27.632Z,55.97
2018-02-12T19:56:56.128Z,55.83
2018-02-12T19:59:24.581Z,56.25
2018-02-12T20:01:53.065Z,56.81
2018-02-12T20:04:21.867Z,57.20
2018-02-12T20:06:51.026Z,56.73
2018-02-12T20:09:19.489Z,56.49
2018-02-12T20:11:48.342Z,56.79
2018-02-12T20:14:16.785Z,56.02
2018-02-12T20:16:45.265Z,56.75
2018-02-12T20:19:13.779Z,56.39
2018-02-12T20:21:42.227Z,56.50
2018-02-12T20:24:10.737Z,56.57
2018-02-12T20:26:39.200Z,56.43
2018-02-12T20:29:07.645Z,56.18
2018-02-12T20:31:36.516Z,56.19
2018-02-12T20:34:05.688Z,56.25
2018-02-12T20:36:34.156Z,56.40
2018-02-12T20:39:02.625Z,55.66
2018-02-12T20:41:31.084Z,55.88
2018-02-12T20:43:59.938Z,55.91
2018-02-12T20:46:28.407Z,55.94
2018-02-12T20:48:56.868Z,56.00
2018-02-12T20:51:25.390Z,55.57
2018-02-12T20:53:53.848Z,55.75
2018-02-12T20:56:22.335Z,56.39
2018-02-12T20:58:50.790Z,56.80
2018-02-12T21:01:19.278Z,56.92
2018-02-12T21:03:47.748Z,56.83
2018-02-12T21:06:16.211Z,57.46
2018-02-12T21:08:44.669Z,56.57
2018-02-12T21:11:14.478Z,56.64
2018-02-12T21:13:42.933Z,56.43
2018-02-12T21:16:12.639Z,56.82
2018-02-12T21:18:41.110Z,56.40
2018-02-12T21:21:09.832Z,56.61
2018-02-12T21:23:38.690Z,56.55
2018-02-12T21:26:07.188Z,57.48
2018-02-12T21:28:35.834Z,57.14
2018-02-12T21:31:04.293Z,57.62
2018-02-12T21:33:32.781Z,57.75
2018-02-12T21:36:01.233Z,57.78
2018-02-12T21:38:29.708Z,57.61
2018-02-12T21:40:58.161Z,57.63
2018-02-12T21:43:26.680Z,57.71
2018-02-12T21:45:55.388Z,57.02
2018-02-12T21:48:23.836Z,57.21
2018-02-12T21:50:52.380Z,57.38
2018-02-12T21:53:21.223Z,58.10
2018-02-12T21:55:50.091Z,58.14
2018-02-12T21:58:18.567Z,57.89
2018-02-12T22:00:47.043Z,58.22
2018-02-12T22:03:15.492Z,58.11
2018-02-12T22:05:44.219Z,57.74
2018-02-12T22:08:12.644Z,58.40
2018-02-12T22:10:41.109Z,58.12
2018-02-12T22:13:09.951Z,58.00
2018-02-12T22:15:38.452Z,57.76
2018-02-12T22:18:06.919Z,57.97
2018-02-12T22:20:35.368Z,57.61
2018-02-12T22:23:03.844Z,57.82
2018-02-12T22:25:32.297Z,58.08
2018-02-12T22:28:01.266Z,58.07
2018-02-12T22:30:29.881Z,58.18
2018-02-12T22:32:58.734Z,57.80
2018-02-12T22:35:27.228Z,57.27
2018-02-12T22:37:55.729Z,57.14
2018-02-12T22:40:24.215Z,56.89
2018-02-12T22:42:53.076Z,57.38
2018-02-12T22:45:21.556Z,57.31
2018-02-12T22:47:50.013Z,57.57
2018-02-12T22:50:18.503Z,57.50
2018-02-12T22:52:46.984Z,57.84
2018-02-12T22:55:15.449Z,57.74
2018-02-12T22:57:43.917Z,57.93
2018-02-12T23:00:12.377Z,58.82
2018-02-12T23:02:40.867Z,57.87
2018-02-12T23:05:09.733Z,57.83
2018-02-12T23:07:38.190Z,57.17
2018-02-12T23:10:06.652Z,57.22
2018-02-12T23:12:35.108Z,57.36
2018-02-12T23:15:09.274Z,57.61
2018-02-12T23:17:37.731Z,57.89
2018-02-12T23:20:06.186Z,58.06
2018-02-12T23:22:34.644Z,58.17
2018-02-12T23:25:03.128Z,58.31
2018-02-12T23:27:31.972Z,58.54
2018-02-12T23:30:00.443Z,58.59
2018-02-12T23:32:28.949Z,58.51
2018-02-12T23:34:57.429Z,59.13
2018-02-12T23:37:25.916Z,59.11
2018-02-12T23:39:54.416Z,59.15
2018-02-12T23:42:23.780Z,59.14
2018-02-12T23:44:52.507Z,59.28
2018-02-12T23:47:21.680Z,58.96
2018-02-12T23:49:50.559Z,58.87
2018-02-12T23:52:19.732Z,59.48
2018-02-12T23:54:48.645Z,59.61
2018-02-12T23:57:17.599Z,59.36
2018-02-12T23:59:46.401Z,59.24
